Time;durP1;ratioP1;P1;durP2;ratioP2;P2;SDS_P1;SDS_P2;PMS_P1;PMS_P2;Temp;Humidity;BMP_temperature;BMP_pressure;BME280_temperature;BME280_humidity;BME280_pressure;Samples;Min_cycle;Max_cycle;Signal;HPM_P1;HPM_P2
2021/01/19 00:00:14;;;;;;;95.10;39.37;;;;;;;-13.19;77.47;100784.08;102458;1113;79827;-72
2021/01/19 00:02:39;;;;;;;98.10;36.70;;;;;;;-13.20;76.84;100766.77;102464;1109;64827;-75
2021/01/19 00:04:45;;;;;;;100.73;37.00;;;;;;;-13.19;77.46;100778.02;102489;1112;81641;-71
2021/01/19 00:06:50;;;;;;;104.47;40.07;;;;;;;-13.18;77.15;100772.78;102477;1113;71707;-70
2021/01/19 00:08:56;;;;;;;100.43;40.20;;;;;;;-13.22;77.17;100780.69;102469;1112;85678;-69
2021/01/19 00:11:05;;;;;;;91.40;36.17;;;;;;;-13.30;77.19;100771.31;102459;1112;79285;-69
2021/01/19 00:13:19;;;;;;;100.30;39.57;;;;;;;-13.26;76.85;100770.35;102479;1116;66359;-63
2021/01/19 00:15:25;;;;;;;96.83;37.53;;;;;;;-13.22;77.13;100765.09;102471;1112;80994;-65
2021/01/19 00:17:31;;;;;;;95.67;39.00;;;;;;;-13.27;77.18;100758.27;102474;1109;72494;-68
2021/01/19 00:19:40;;;;;;;98.63;40.93;;;;;;;-13.21;76.19;100765.08;102481;1112;85160;-69
2021/01/19 00:21:45;;;;;;;96.80;39.07;;;;;;;-13.22;76.82;100770.29;102522;1109;80235;-68
2021/01/19 00:23:51;;;;;;;98.03;39.63;;;;;;;-13.19;76.87;100772.83;102449;1112;64878;-63
2021/01/19 00:25:57;;;;;;;102.20;41.33;;;;;;;-13.18;76.55;100769.35;102436;1112;82435;-62
2021/01/19 00:28:03;;;;;;;92.73;40.13;;;;;;;-13.23;76.31;100761.63;102510;1112;71309;-67
2021/01/19 00:30:13;;;;;;;111.87;42.37;;;;;;;-13.30;76.97;100755.73;102481;1109;85320;-67
2021/01/19 00:32:19;;;;;;;104.43;42.43;;;;;;;-13.26;76.99;100754.76;102494;1112;79344;-64
2021/01/19 00:34:25;;;;;;;96.63;40.23;;;;;;;-13.24;76.96;100750.38;102452;1112;64807;-68
2021/01/19 00:36:31;;;;;;;88.57;35.47;;;;;;;-13.25;77.30;100751.28;102455;1109;81178;-66
2021/01/19 00:38:37;;;;;;;111.33;43.63;;;;;;;-13.18;77.12;100746.79;102529;1112;72420;-68
2021/01/19 00:40:43;;;;;;;99.33;40.97;;;;;;;-13.14;76.72;100742.39;102497;1109;83879;-67
2021/01/19 00:42:49;;;;;;;113.83;42.63;;;;;;;-13.09;76.96;100746.60;102473;1113;79928;-64
2021/01/19 00:44:54;;;;;;;117.77;43.47;;;;;;;-13.05;76.94;100742.16;102480;1109;64716;-64
2021/01/19 00:47:00;;;;;;;119.70;47.63;;;;;;;-12.98;77.02;100744.59;102466;1109;83063;-63
2021/01/19 00:49:05;;;;;;;120.33;45.87;;;;;;;-12.97;76.46;100748.91;102510;1109;71832;-63
2021/01/19 00:51:11;;;;;;;121.33;46.53;;;;;;;-12.97;76.83;100751.51;102460;1109;85144;-63
2021/01/19 00:53:17;;;;;;;113.33;45.77;;;;;;;-12.96;76.81;100755.80;102448;1112;79394;-63
2021/01/19 00:55:23;;;;;;;117.20;47.35;;;;;;;-12.95;77.13;100754.92;102496;1112;64894;-64
2021/01/19 00:57:31;;;;;;;114.63;46.90;;;;;;;-12.89;76.93;100749.59;102489;1116;83096;-64
2021/01/19 00:59:40;;;;;;;110.47;45.60;;;;;;;-12.92;76.96;100739.25;102492;1112;72854;-62
2021/01/19 01:01:50;;;;;;;121.57;47.07;;;;;;;-12.85;77.05;100753.81;102484;1112;84211;-64
2021/01/19 01:03:55;;;;;;;114.23;42.43;;;;;;;-12.87;76.33;100740.00;102436;1109;79385;-64
2021/01/19 01:06:02;;;;;;;116.37;45.03;;;;;;;-12.77;76.68;100738.88;102492;1112;64926;-63
2021/01/19 01:08:08;;;;;;;120.95;45.50;;;;;;;-12.79;76.53;100729.41;102450;1112;82879;-64
2021/01/19 01:10:16;;;;;;;128.60;45.67;;;;;;;-12.72;76.46;100726.66;102474;1113;72696;-63
2021/01/19 01:12:23;;;;;;;114.13;44.70;;;;;;;-12.63;76.29;100725.55;102481;1112;84298;-67
2021/01/19 01:14:28;;;;;;;121.17;46.47;;;;;;;-12.68;75.91;100725.67;102431;1112;79669;-68
2021/01/19 01:16:35;;;;;;;110.90;44.73;;;;;;;-12.69;76.50;100726.55;102458;1114;64923;-68
2021/01/19 01:18:41;;;;;;;116.50;42.67;;;;;;;-12.69;76.94;100721.35;102497;1116;81386;-63
2021/01/19 01:20:46;;;;;;;118.80;44.17;;;;;;;-12.68;76.29;100715.27;102465;1112;72070;-63
2021/01/19 01:22:52;;;;;;;114.93;46.13;;;;;;;-12.68;76.35;100710.07;102456;1112;86451;-64
2021/01/19 01:24:58;;;;;;;113.40;43.13;;;;;;;-12.67;76.11;100714.39;102466;1112;77626;-64
2021/01/19 01:27:07;;;;;;;126.27;50.90;;;;;;;-12.62;76.29;100706.47;102463;1114;64744;-64
2021/01/19 01:29:13;;;;;;;117.93;44.90;;;;;;;-12.70;76.23;100698.00;102486;1112;80925;-64
2021/01/19 01:31:22;;;;;;;123.83;45.57;;;;;;;-12.63;76.22;100699.54;102468;1112;72418;-64
2021/01/19 01:33:27;;;;;;;116.43;43.37;;;;;;;-12.59;76.82;100700.33;102445;1112;85961;-68
2021/01/19 01:35:36;;;;;;;113.53;44.20;;;;;;;-12.57;77.04;100699.40;102431;1116;79598;-70
2021/01/19 01:37:47;;;;;;;116.57;46.37;;;;;;;-12.58;76.97;100696.84;102484;1116;64834;-69
2021/01/19 01:39:53;;;;;;;122.05;46.20;;;;;;;-12.52;76.08;100694.10;102478;1112;81715;-68
2021/01/19 01:41:58;;;;;;;127.47;46.17;;;;;;;-12.53;76.10;100690.64;102409;1111;71735;-66
2021/01/19 01:44:05;;;;;;;110.17;44.97;;;;;;;-12.47;76.21;100689.62;102450;1112;85943;-63
2021/01/19 01:46:13;;;;;;;109.40;42.77;;;;;;;-12.42;76.14;100691.22;102439;1112;78930;-65
2021/01/19 01:48:19;;;;;;;118.77;46.40;;;;;;;-12.37;76.15;100678.94;102400;1113;64882;-64
2021/01/19 01:50:26;;;;;;;121.20;45.60;;;;;;;-12.38;76.03;100678.97;102439;1112;83464;-64
2021/01/19 01:52:33;;;;;;;115.83;46.90;;;;;;;-12.37;76.50;100670.28;102447;1112;72797;-69
2021/01/19 01:54:40;;;;;;;122.60;46.10;;;;;;;-12.35;76.81;100671.08;102450;1112;84507;-69
2021/01/19 01:56:48;;;;;;;118.70;45.23;;;;;;;-12.32;76.04;100663.20;102470;1112;78801;-70
2021/01/19 01:58:55;;;;;;;110.43;44.33;;;;;;;-12.19;76.50;100664.58;102446;1112;64894;-69
2021/01/19 02:01:00;;;;;;;113.13;46.20;;;;;;;-12.15;76.56;100667.08;102460;1113;81433;-70
2021/01/19 02:03:09;;;;;;;108.25;44.70;;;;;;;-12.10;76.63;100659.12;102463;1112;72354;-69
2021/01/19 02:05:16;;;;;;;114.97;44.53;;;;;;;-12.21;76.38;100653.36;102460;1109;85788;-70
2021/01/19 02:07:29;;;;;;;127.20;46.80;;;;;;;-12.09;76.18;100650.44;102497;1112;78615;-68
2021/01/19 02:09:41;;;;;;;;;;;;;;;-12.10;76.46;100648.72;102517;1112;64888;-69
2021/01/19 02:11:56;;;;;;;113.60;46.03;;;;;;;-12.03;76.40;100652.88;102492;1109;82146;-70
2021/01/19 02:14:11;;;;;;;117.23;44.50;;;;;;;-11.95;77.12;100648.31;102487;1114;71820;-64
2021/01/19 02:16:51;;;;;;;118.05;44.95;;;;;;;-11.94;76.80;100647.39;102476;1116;85661;-64
2021/01/19 02:19:16;;;;;;;101.70;40.37;;;;;;;-11.89;76.83;100647.28;102465;1112;78178;-64
2021/01/19 02:22:10;;;;;;;119.33;44.73;;;;;;;-11.83;76.11;100647.94;102477;1116;64957;-65
2021/01/19 02:24:32;;;;;;;122.80;45.13;;;;;;;-11.79;76.14;100649.58;102320;1112;82222;-65
2021/01/19 02:27:14;;;;;;;125.50;46.27;;;;;;;-11.75;76.19;100650.32;102483;1112;72708;-64
2021/01/19 02:29:50;;;;;;;115.27;44.13;;;;;;;-11.63;76.40;100649.95;102470;1116;84804;-69
2021/01/19 02:32:14;;;;;;;119.47;45.13;;;;;;;-11.55;76.19;100654.03;102463;1116;77461;-69
2021/01/19 02:34:27;;;;;;;114.00;43.02;;;;;;;-11.51;76.31;100649.59;102516;1112;64827;-70
2021/01/19 02:36:47;;;;;;;114.70;44.50;;;;;;;-11.49;76.63;100647.79;102470;1113;81119;-69
2021/01/19 02:38:58;;;;;;;119.60;44.40;;;;;;;-11.46;76.69;100643.34;102493;1112;71953;-70
2021/01/19 02:41:05;;;;;;;120.87;46.00;;;;;;;-11.36;76.62;100632.63;102482;1112;85206;-70
2021/01/19 02:43:23;;;;;;;114.83;46.73;;;;;;;-11.30;76.45;100632.44;102423;1111;78622;-65
2021/01/19 02:45:30;;;;;;;120.83;47.80;;;;;;;-11.28;77.11;100638.45;102484;1116;64990;-64
2021/01/19 02:47:35;;;;;;;113.40;45.10;;;;;;;-11.28;77.13;100630.63;102472;1116;82244;-65
2021/01/19 02:49:43;;;;;;;120.40;46.37;;;;;;;-11.25;76.38;100630.54;102490;1116;72285;-64
2021/01/19 02:51:50;;;;;;;114.80;45.27;;;;;;;-11.19;76.11;100622.53;102464;1116;86099;-64
2021/01/19 02:53:57;;;;;;;118.40;45.63;;;;;;;-11.15;76.35;100626.77;102474;1112;79281;-69
2021/01/19 02:56:05;;;;;;;121.13;45.33;;;;;;;-11.19;77.46;100612.11;102465;1112;64944;-69
2021/01/19 02:58:49;;;;;;;109.13;46.20;;;;;;;-11.19;77.33;100612.97;102478;1112;81732;-64
2021/01/19 03:01:09;;;;;;;114.90;43.83;;;;;;;-11.14;77.49;100610.20;102315;1113;72256;-64
2021/01/19 03:03:16;;;;;;;110.00;43.70;;;;;;;-11.09;77.10;100598.72;102246;1112;86146;-71
2021/01/19 03:05:23;;;;;;;115.93;44.87;;;;;;;-11.00;77.05;100605.40;102268;1112;78368;-70
2021/01/19 03:07:31;;;;;;;106.47;43.40;;;;;;;-11.01;77.31;100601.08;102285;1112;64805;-65
2021/01/19 03:09:42;;;;;;;115.03;47.07;;;;;;;-10.93;77.78;100591.27;102295;1112;83742;-65
2021/01/19 03:11:50;;;;;;;109.43;43.17;;;;;;;-10.89;77.59;100596.33;102269;1112;73119;-64
2021/01/19 03:13:56;;;;;;;110.23;44.23;;;;;;;-10.83;77.49;100592.66;102373;1112;84898;-65
2021/01/19 03:16:11;;;;;;;107.33;44.70;;;;;;;-10.79;77.78;100599.47;102378;1109;77704;-64
2021/01/19 03:18:19;;;;;;;112.70;44.17;;;;;;;-10.68;77.27;100597.34;102475;1113;64951;-65
2021/01/19 03:20:27;;;;;;;108.30;44.67;;;;;;;-10.64;77.09;100596.36;102457;1109;82712;-64
2021/01/19 03:22:33;;;;;;;112.27;44.47;;;;;;;-10.64;77.64;100588.53;102454;1112;71759;-65
2021/01/19 03:24:39;;;;;;;107.53;45.07;;;;;;;-10.65;77.66;100592.03;102463;1109;85506;-64
2021/01/19 03:26:45;;;;;;;111.07;42.67;;;;;;;-10.55;77.38;100589.98;102462;1109;78037;-64
2021/01/19 03:28:50;;;;;;;106.90;40.50;;;;;;;-10.51;77.79;100591.55;102502;1109;64957;-64
2021/01/19 03:30:57;;;;;;;104.90;43.90;;;;;;;-10.52;77.45;100576.82;102476;1112;83262;-64
2021/01/19 03:33:03;;;;;;;111.67;45.90;;;;;;;-10.45;77.51;100573.08;102501;1109;72606;-64
2021/01/19 03:35:13;;;;;;;112.27;45.13;;;;;;;-10.39;77.57;100573.73;102464;1109;84115;-65
2021/01/19 03:37:18;;;;;;;113.20;43.47;;;;;;;-10.38;77.48;100571.97;102488;1113;77739;-68
2021/01/19 03:39:25;;;;;;;118.47;44.87;;;;;;;-10.31;77.06;100571.69;102494;1109;64945;-70
2021/01/19 03:41:31;;;;;;;104.13;41.83;;;;;;;-10.37;77.26;100560.61;102489;1109;81821;-69
2021/01/19 03:43:39;;;;;;;115.03;46.13;;;;;;;-10.40;77.68;100572.02;102532;1109;73296;-64
2021/01/19 03:45:45;;;;;;;107.17;45.87;;;;;;;-10.39;77.28;100565.03;102476;1109;85621;-65
2021/01/19 03:47:51;;;;;;;109.60;47.10;;;;;;;-10.35;77.49;100570.08;102505;1109;77654;-65
2021/01/19 03:49:56;;;;;;;117.43;47.30;;;;;;;-10.36;77.87;100565.79;102491;1109;64881;-65
2021/01/19 03:52:05;;;;;;;113.90;46.90;;;;;;;-10.31;77.77;100557.78;102459;1109;83276;-65
2021/01/19 03:54:11;;;;;;;116.00;46.60;;;;;;;-10.25;77.37;100555.81;102489;1113;72160;-65
2021/01/19 03:56:17;;;;;;;124.40;48.97;;;;;;;-10.24;77.28;100549.66;102451;1109;85762;-64
2021/01/19 03:58:23;;;;;;;116.10;45.23;;;;;;;-10.18;77.21;100548.59;102450;1109;78764;-64
2021/01/19 04:00:29;;;;;;;132.40;50.03;;;;;;;-10.24;77.16;100533.99;102452;1113;64884;-65
2021/01/19 04:02:34;;;;;;;112.10;48.10;;;;;;;-10.09;77.37;100540.39;102404;1109;82333;-69
2021/01/19 04:04:40;;;;;;;99.70;41.60;;;;;;;-10.15;77.41;100545.01;102489;1112;72663;-70
2021/01/19 04:06:46;;;;;;;127.83;50.93;;;;;;;-10.17;77.02;100545.08;102485;1113;85038;-69
2021/01/19 04:08:52;;;;;;;127.85;50.05;;;;;;;-10.13;77.41;100538.82;102473;1109;78854;-64
2021/01/19 04:10:58;;;;;;;122.83;49.10;;;;;;;-10.13;77.42;100532.77;102463;1109;64888;-64
2021/01/19 04:13:04;;;;;;;125.93;49.73;;;;;;;-10.04;76.87;100524.53;102474;1113;83229;-64
2021/01/19 04:15:12;;;;;;;123.03;48.27;;;;;;;-10.04;77.14;100528.01;102472;1109;72822;-64
2021/01/19 04:17:20;;;;;;;123.57;53.23;;;;;;;-10.05;77.15;100533.30;102482;1109;85239;-65
2021/01/19 04:19:29;;;;;;;124.80;51.80;;;;;;;-10.01;77.07;100522.67;102473;1109;78643;-65
2021/01/19 04:21:34;;;;;;;134.93;54.50;;;;;;;-9.93;77.39;100523.23;102490;1112;64879;-64
2021/01/19 04:23:40;;;;;;;142.20;54.07;;;;;;;-9.93;76.74;100519.76;102494;1109;82453;-70
2021/01/19 04:25:47;;;;;;;136.50;53.90;;;;;;;-10.04;77.16;100519.31;102498;1109;73045;-70
2021/01/19 04:27:53;;;;;;;125.10;48.50;;;;;;;-10.04;76.43;100532.37;102476;1109;85546;-69
2021/01/19 04:30:03;;;;;;;134.40;54.90;;;;;;;-9.98;76.81;100530.39;102464;1109;78550;-70
2021/01/19 04:32:09;;;;;;;137.23;54.03;;;;;;;-10.07;76.98;100525.50;102492;1112;64881;-68
2021/01/19 04:34:15;;;;;;;133.70;55.60;;;;;;;-10.08;76.91;100525.58;102482;1109;84116;-70
2021/01/19 04:36:20;;;;;;;144.55;58.80;;;;;;;-10.10;76.80;100523.00;102470;1113;71990;-70
2021/01/19 04:38:26;;;;;;;147.33;57.93;;;;;;;-10.09;76.75;100519.50;102480;1109;85427;-71
2021/01/19 04:40:32;;;;;;;134.90;54.10;;;;;;;-10.10;77.08;100520.39;102445;1109;80098;-70
2021/01/19 04:42:41;;;;;;;134.73;51.17;;;;;;;-10.28;76.97;100516.75;102477;1109;64884;-69
2021/01/19 04:44:51;;;;;;;156.17;61.63;;;;;;;-10.24;77.13;100526.16;102482;1109;82218;-70
2021/01/19 04:46:57;;;;;;;145.30;57.30;;;;;;;-10.15;76.83;100519.75;102509;1109;72435;-70
2021/01/19 04:49:05;;;;;;;150.47;57.77;;;;;;;-10.18;77.03;100516.39;102495;1112;84973;-66
2021/01/19 04:51:18;;;;;;;137.70;56.50;;;;;;;-10.15;76.75;100513.67;102460;1109;79753;-65
2021/01/19 04:53:27;;;;;;;156.43;58.33;;;;;;;-10.06;76.87;100510.69;102533;1112;65335;-70
2021/01/19 04:55:37;;;;;;;146.77;56.60;;;;;;;-9.97;76.85;100515.58;102454;1109;83852;-69
2021/01/19 04:57:53;;;;;;;142.23;56.73;;;;;;;-9.89;77.17;100518.75;102514;1109;71939;-65
2021/01/19 05:00:05;;;;;;;159.57;57.93;;;;;;;-9.98;77.35;100525.17;102494;1109;84836;-65
2021/01/19 05:03:08;;;;;;;145.70;57.40;;;;;;;-9.95;76.91;100521.59;102467;1110;78370;-65
2021/01/19 05:06:13;;;;;;;143.17;54.87;;;;;;;-9.98;77.08;100508.64;102474;1109;64748;-64
2021/01/19 05:08:46;;;;;;;113.35;44.45;;;;;;;-9.90;77.12;100501.36;102431;1109;83057;-64
2021/01/19 05:11:24;;;;;;;134.20;54.33;;;;;;;-9.85;77.11;100507.25;102490;1109;72187;-65
2021/01/19 05:13:55;;;;;;;143.25;55.90;;;;;;;-9.87;77.14;100493.41;102469;1109;84366;-64
2021/01/19 05:16:05;;;;;;;146.03;55.67;;;;;;;-9.93;77.25;100493.63;102477;1109;78097;-64
2021/01/19 05:18:14;;;;;;;151.73;56.70;;;;;;;-9.89;77.60;100500.45;102503;1109;64882;-70
2021/01/19 05:20:30;;;;;;;142.40;54.85;;;;;;;-9.80;77.32;100487.87;102484;1109;81560;-69
2021/01/19 05:22:36;;;;;;;131.50;55.27;;;;;;;-9.71;77.13;100489.28;102494;1109;72244;-65
2021/01/19 05:24:46;;;;;;;129.00;54.43;;;;;;;-9.63;76.75;100487.20;102485;1109;84759;-65
2021/01/19 05:26:52;;;;;;;138.23;53.87;;;;;;;-9.64;77.59;100488.14;102453;1109;80168;-64
2021/01/19 05:29:04;;;;;;;141.90;55.00;;;;;;;-9.67;76.95;100485.65;102474;1109;64984;-64
2021/01/19 05:31:27;;;;;;;136.37;56.50;;;;;;;-9.61;77.30;100493.22;102486;1113;81918;-66
2021/01/19 05:33:34;;;;;;;143.32;54.38;;;;;;;-9.64;77.28;100477.69;102521;1109;72164;-71
2021/01/19 05:35:39;;;;;;;141.87;56.43;;;;;;;-9.58;77.21;100485.26;102467;1109;84684;-70
2021/01/19 05:37:57;;;;;;;143.90;54.83;;;;;;;-9.61;76.93;100480.15;102444;1109;79463;-72
2021/01/19 05:40:08;;;;;;;126.33;50.67;;;;;;;-9.64;77.42;100472.46;102498;1109;64930;-70
2021/01/19 05:42:25;;;;;;;134.80;54.53;;;;;;;-9.67;77.17;100481.25;102436;1109;82412;-68
2021/01/19 05:44:32;;;;;;;136.87;52.77;;;;;;;-9.58;77.26;100479.20;102486;1109;73732;-70
2021/01/19 05:46:45;;;;;;;137.83;58.43;;;;;;;-9.52;77.16;100484.16;102487;1109;85332;-70
2021/01/19 05:48:56;;;;;;;153.77;55.63;;;;;;;-9.48;77.17;100476.16;102465;1109;78323;-70
2021/01/19 05:51:02;;;;;;;140.53;55.80;;;;;;;-9.55;77.00;100484.28;102486;1109;64878;-69
2021/01/19 05:53:15;;;;;;;139.45;55.40;;;;;;;-9.48;77.17;100475.30;102489;1109;81569;-65
2021/01/19 05:55:28;;;;;;;134.07;54.60;;;;;;;-9.51;76.96;100476.27;102512;1109;72246;-65
2021/01/19 05:57:34;;;;;;;144.00;55.08;;;;;;;-9.42;77.37;100483.72;102451;1109;86341;-65
2021/01/19 05:59:42;;;;;;;140.40;55.27;;;;;;;-9.45;77.37;100472.56;102470;1109;77701;-65
2021/01/19 06:01:57;;;;;;;147.20;57.43;;;;;;;-9.37;77.17;100484.41;102479;1109;64897;-65
2021/01/19 06:04:04;;;;;;;146.07;56.70;;;;;;;-9.37;77.00;100481.80;102526;1109;81239;-65
2021/01/19 06:06:18;;;;;;;140.10;57.20;;;;;;;-9.32;77.47;100486.83;102507;1109;72285;-64
2021/01/19 06:08:24;;;;;;;;;;;;;;;-9.22;77.42;100488.14;102515;1109;84982;-65
2021/01/19 06:10:32;;;;;;;127.43;48.07;;;;;;;-9.22;77.32;100485.53;102449;1109;78888;-65
2021/01/19 06:12:38;;;;;;;144.27;55.03;;;;;;;-9.22;77.31;100483.77;102501;1109;64980;-64
2021/01/19 06:14:51;;;;;;;133.50;53.63;;;;;;;-9.20;77.00;100492.39;102442;1109;83086;-65
2021/01/19 06:17:15;;;;;;;129.07;52.70;;;;;;;-9.14;77.40;100483.44;102489;1110;71112;-64
2021/01/19 06:19:32;;;;;;;139.17;55.97;;;;;;;-9.14;77.48;100486.91;102452;1112;84417;-74
2021/01/19 06:21:38;;;;;;;134.10;54.10;;;;;;;-9.10;77.24;100488.50;102464;1109;78512;-75
2021/01/19 06:23:48;;;;;;;135.13;52.27;;;;;;;-8.99;76.94;100488.05;102447;1111;65339;-70
2021/01/19 06:26:05;;;;;;;130.90;53.70;;;;;;;-8.99;77.40;100485.43;102470;1113;81421;-65
2021/01/19 06:28:11;;;;;;;141.87;55.17;;;;;;;-8.93;77.24;100482.56;102483;1109;72554;-66
2021/01/19 06:30:20;;;;;;;134.97;54.30;;;;;;;-9.03;77.42;100484.70;102488;1109;85084;-66
2021/01/19 06:32:27;;;;;;;128.97;53.33;;;;;;;-9.02;77.29;100475.95;102461;1109;79496;-64
2021/01/19 06:34:38;;;;;;;140.43;54.67;;;;;;;-9.08;77.66;100473.58;102503;1109;64951;-66
2021/01/19 06:36:43;;;;;;;134.85;54.05;;;;;;;-9.07;77.65;100466.59;102485;1109;81651;-70
2021/01/19 06:38:51;;;;;;;136.43;55.33;;;;;;;-9.08;77.37;100473.58;102457;1112;72930;-73
2021/01/19 06:41:02;;;;;;;121.30;47.30;;;;;;;-9.07;77.92;100467.45;102464;1109;85218;-73
2021/01/19 06:43:16;;;;;;;132.07;55.60;;;;;;;-8.97;77.64;100459.19;103112;1109;77749;-73
2021/01/19 06:45:21;;;;;;;;;;;;;;;-8.89;77.53;100464.94;103235;1109;64912;-76
2021/01/19 06:47:28;;;;;;;137.07;52.43;;;;;;;-8.92;77.60;100451.98;102467;1109;82020;-75
2021/01/19 06:49:36;;;;;;;135.90;51.63;;;;;;;-8.87;77.53;100463.13;102449;1113;71301;-69
2021/01/19 06:51:50;;;;;;;128.87;52.37;;;;;;;-8.95;77.65;100459.99;102470;1109;84560;-77
2021/01/19 06:54:08;;;;;;;140.47;54.10;;;;;;;-8.96;77.77;100460.90;102489;1112;79231;-63
2021/01/19 06:56:16;;;;;;;121.60;49.15;;;;;;;-9.03;77.83;100448.07;102463;1112;66105;-63
2021/01/19 06:58:53;;;;;;;129.70;54.93;;;;;;;-9.06;77.83;100442.97;102501;1109;83142;-62
2021/01/19 07:01:02;;;;;;;129.43;54.43;;;;;;;-8.96;77.75;100453.05;102508;1109;71313;-63
2021/01/19 07:03:20;;;;;;;130.10;54.87;;;;;;;-8.85;77.85;100456.91;102478;1109;85402;-74
2021/01/19 07:05:26;;;;;;;125.77;53.73;;;;;;;-8.72;77.80;100458.06;102479;1112;77890;-74
2021/01/19 07:07:41;;;;;;;137.60;54.03;;;;;;;-8.70;77.87;100457.98;102430;1113;64846;-74
2021/01/19 07:10:08;;;;;;;128.97;53.53;;;;;;;-8.66;77.94;100449.95;102475;1109;82071;-74
2021/01/19 07:12:18;;;;;;;131.23;53.30;;;;;;;-8.66;77.85;100438.62;102488;1113;71036;-64
2021/01/19 07:14:43;;;;;;;131.07;51.43;;;;;;;-8.60;77.94;100439.21;102535;1108;84815;-64
2021/01/19 07:16:58;;;;;;;136.43;55.63;;;;;;;-8.56;77.82;100430.28;102509;1109;79271;-63
2021/01/19 07:19:19;;;;;;;138.10;54.07;;;;;;;-8.50;78.06;100434.40;102605;1109;64951;-62
2021/01/19 07:22:00;;;;;;;141.93;56.03;;;;;;;-8.57;78.04;100439.05;102519;1109;82925;-62
2021/01/19 07:24:27;;;;;;;131.83;53.00;;;;;;;-8.55;78.06;100436.38;102582;1109;72513;-67
2021/01/19 07:26:38;;;;;;;140.13;56.13;;;;;;;-8.43;77.64;100438.42;102535;1109;84530;-68
2021/01/19 07:28:44;;;;;;;142.50;54.17;;;;;;;-8.36;77.88;100429.39;102605;1109;78748;-63
2021/01/19 07:30:53;;;;;;;134.63;55.17;;;;;;;-8.38;78.10;100439.09;102537;1109;64881;-63
2021/01/19 07:33:00;;;;;;;137.77;56.03;;;;;;;-8.40;78.03;100427.81;102549;1109;83370;-66
2021/01/19 07:35:08;;;;;;;130.93;56.43;;;;;;;-8.40;78.23;100433.05;102560;1109;71377;-67
2021/01/19 07:37:14;;;;;;;140.07;56.53;;;;;;;-8.28;77.83;100432.50;102549;1109;84362;-66
2021/01/19 07:39:20;;;;;;;130.37;53.67;;;;;;;-8.28;77.74;100427.27;102527;1109;80062;-67
2021/01/19 07:41:34;;;;;;;138.70;55.87;;;;;;;-8.31;77.63;100427.41;102535;1109;64945;-67
2021/01/19 07:43:41;;;;;;;133.37;54.70;;;;;;;-8.22;77.63;100431.34;102562;1109;82631;-67
2021/01/19 07:45:55;;;;;;;137.13;55.60;;;;;;;-8.20;77.33;100435.58;102534;1109;71862;-67
2021/01/19 07:48:09;;;;;;;139.37;58.10;;;;;;;-8.08;77.67;100435.03;102559;1109;84553;-66
2021/01/19 07:50:18;;;;;;;135.40;55.60;;;;;;;-8.05;77.47;100434.89;102547;1109;77895;-66
2021/01/19 07:52:23;;;;;;;134.67;54.83;;;;;;;-8.00;77.20;100432.89;102575;1113;64878;-66
2021/01/19 07:54:31;;;;;;;125.53;52.10;;;;;;;-8.06;77.52;100427.94;102519;1109;82803;-66
2021/01/19 07:56:36;;;;;;;136.97;56.50;;;;;;;-8.04;77.58;100420.84;102553;1113;72598;-65
2021/01/19 07:58:42;;;;;;;139.90;57.73;;;;;;;-7.98;77.57;100415.31;102572;1109;84779;-64
2021/01/19 08:00:56;;;;;;;139.53;56.00;;;;;;;-7.92;77.70;100417.66;102504;1109;79043;-63
2021/01/19 08:03:06;;;;;;;150.70;57.73;;;;;;;-8.00;77.54;100419.80;102600;1113;64980;-78
2021/01/19 08:05:14;;;;;;;122.83;51.10;;;;;;;-7.97;77.53;100421.41;102549;1109;82001;-76
2021/01/19 08:07:21;;;;;;;144.60;58.73;;;;;;;-7.85;77.14;100429.53;102622;1109;71413;-74
2021/01/19 08:09:37;;;;;;;137.60;57.10;;;;;;;-7.75;77.63;100431.72;102619;1109;84117;-73
2021/01/19 08:11:46;;;;;;;136.40;51.73;;;;;;;-7.68;76.79;100425.25;102556;1109;78910;-76
2021/01/19 08:14:01;;;;;;;141.57;56.77;;;;;;;-7.67;77.55;100438.30;102567;1111;64859;-64
2021/01/19 08:16:09;;;;;;;146.20;60.43;;;;;;;-7.59;77.26;100440.55;102576;1109;81664;-64
2021/01/19 08:18:19;;;;;;;139.73;58.57;;;;;;;-7.57;77.19;100439.55;102552;1109;71875;-63
2021/01/19 08:20:31;;;;;;;135.83;56.90;;;;;;;-7.47;77.10;100434.71;102530;1109;85589;-63
2021/01/19 08:22:36;;;;;;;134.20;57.50;;;;;;;-7.46;76.86;100428.52;102555;1113;77981;-62
2021/01/19 08:24:45;;;;;;;137.00;58.53;;;;;;;-7.38;77.30;100424.59;102491;1108;64906;-62
2021/01/19 08:26:52;;;;;;;140.70;56.87;;;;;;;-7.30;77.01;100426.83;102488;1109;83692;-62
2021/01/19 08:28:59;;;;;;;139.63;58.17;;;;;;;-7.34;77.00;100422.68;102571;1109;72159;-63
2021/01/19 08:31:15;;;;;;;143.77;59.30;;;;;;;-7.35;76.99;100423.59;102527;1109;85413;-63
2021/01/19 08:33:24;;;;;;;135.27;59.23;;;;;;;-7.28;76.61;100412.70;102552;1109;78533;-74
2021/01/19 08:35:31;;;;;;;138.20;59.17;;;;;;;-7.15;76.82;100418.20;102564;1113;64699;-73
2021/01/19 08:37:38;;;;;;;149.10;60.60;;;;;;;-7.07;77.10;100416.03;102551;1109;83516;-63
2021/01/19 08:39:55;;;;;;;135.33;58.87;;;;;;;-7.08;76.83;100416.09;102742;1096;71874;-63
2021/01/19 08:42:03;;;;;;;134.30;59.10;;;;;;;-7.05;76.45;100406.30;102566;1105;84905;-63
2021/01/19 08:44:13;;;;;;;132.30;54.67;;;;;;;-7.12;76.96;100407.55;102537;1109;78572;-73
2021/01/19 08:46:19;;;;;;;139.60;57.37;;;;;;;-7.03;76.78;100403.61;102582;1106;64919;-73
2021/01/19 08:48:32;;;;;;;138.20;57.23;;;;;;;-6.92;76.48;100406.53;102559;1109;83693;-73
2021/01/19 08:50:39;;;;;;;135.30;56.33;;;;;;;-6.88;76.59;100406.28;102743;1089;72274;-64
2021/01/19 08:52:49;;;;;;;147.27;60.53;;;;;;;-6.88;76.53;100401.03;102546;1109;85352;-64
2021/01/19 08:54:59;;;;;;;134.70;58.13;;;;;;;-6.83;76.77;100404.27;102422;1108;78733;-64
2021/01/19 08:57:08;;;;;;;140.43;61.00;;;;;;;-6.66;76.65;100400.75;102821;1111;64871;-63
2021/01/19 08:59:19;;;;;;;144.17;63.47;;;;;;;-6.51;76.48;100404.35;102555;1109;81538;-63
2021/01/19 09:01:25;;;;;;;138.60;61.77;;;;;;;-6.56;76.67;100404.58;102580;1109;72168;-74
2021/01/19 09:03:30;;;;;;;147.30;63.23;;;;;;;-6.45;76.53;100409.28;102561;1109;85405;-74
2021/01/19 09:05:37;;;;;;;234.60;108.63;;;;;;;-6.36;76.23;100416.66;102586;1109;80207;-64
2021/01/19 09:07:43;;;;;;;249.80;113.13;;;;;;;-6.49;76.59;100407.73;102545;1109;64882;-65
2021/01/19 09:09:51;;;;;;;151.70;63.37;;;;;;;-6.53;76.31;100387.80;102585;1109;81716;-67
2021/01/19 09:12:00;;;;;;;151.55;64.30;;;;;;;-6.45;76.29;100393.52;102570;1109;72407;-73
2021/01/19 09:14:09;;;;;;;153.90;63.53;;;;;;;-6.50;76.34;100400.77;102526;1109;85300;-73
2021/01/19 09:16:25;;;;;;;152.97;61.87;;;;;;;-6.49;76.28;100407.73;102549;1109;77859;-73
2021/01/19 09:18:33;;;;;;;144.27;62.47;;;;;;;-6.38;75.82;100405.38;102554;1109;65006;-75
2021/01/19 09:20:40;;;;;;;145.33;66.03;;;;;;;-6.32;75.90;100413.80;102537;1113;82619;-64
2021/01/19 09:22:45;;;;;;;156.83;68.80;;;;;;;-6.13;76.06;100405.75;102539;1109;72789;-63
2021/01/19 09:24:55;;;;;;;147.73;64.40;;;;;;;-6.11;75.70;100398.62;102578;1109;85224;-67
2021/01/19 09:27:04;;;;;;;143.30;62.23;;;;;;;-6.29;75.25;100387.32;102556;1109;78635;-63
2021/01/19 09:29:09;;;;;;;150.90;64.00;;;;;;;-6.16;75.67;100385.74;102575;1109;64859;-63
2021/01/19 09:31:18;;;;;;;144.17;64.27;;;;;;;-6.06;75.64;100396.58;102578;1109;82583;-74
2021/01/19 09:33:32;;;;;;;147.40;64.93;;;;;;;-6.05;75.43;100393.03;102590;1109;72855;-72
2021/01/19 09:35:42;;;;;;;151.20;66.10;;;;;;;-6.03;74.80;100399.05;102577;1109;85074;-63
2021/01/19 09:37:48;;;;;;;143.40;62.87;;;;;;;-6.08;75.21;100399.31;102544;1109;77090;-64